Las Bayas, Argentina
Current Conditions -  °F | °C
As of 7:00 AM on Tuesday 21 Oct 2014 (Local Time) from SAZS Reporting Station
Scattered Clouds Scattered Clouds  
Wind Chill: 50°   Ceiling: Unl
Heat Index: 50°   Visibility: 6mi
Dew Point: 39°   Wind: 21mph
Humidity: 66%   Direction: 320°NW
Pressure: 29.88"   Gusts: NA
Location:  41.29°S, 70.7°W
Report Text: SAZS 211000Z 32018KT 9999 FEW035 SCT10010/04 Q1012
Loading
Personal Weather Stations






























Interactive Weather Map New forecast layout! Learn more

10-Day Weather Forecast

Advertisements
Track Severe Weather on mobile